Time;durP1;ratioP1;P1;durP2;ratioP2;P2;SDS_P1;SDS_P2;PMS_P1;PMS_P2;Temp;Humidity;BMP_temperature;BMP_pressure;BME280_temperature;BME280_humidity;BME280_pressure;Samples;Min_cycle;Max_cycle;Signal;HPM_P1;HPM_P2
2021/05/14 00:01:02;;;;;;;;;4.67;4.00;;;;;21.00;58.79;96882.16;4934710;28;103836;-72
2021/05/14 00:03:29;;;;;;;;;4.33;4.33;;;;;21.00;59.42;96882.16;4911690;28;102647;-72
2021/05/14 00:05:56;;;;;;;;;4.00;4.00;;;;;21.01;59.14;96884.59;4930288;28;102480;-73
2021/05/14 00:08:23;;;;;;;;;4.67;4.00;;;;;20.99;58.97;96889.56;4925728;28;102268;-72
2021/05/14 00:10:51;;;;;;;;;4.00;4.00;;;;;20.99;59.16;96883.25;4909751;28;104105;-72
2021/05/14 00:13:18;;;;;;;;;6.67;6.00;;;;;20.99;59.04;96892.31;4915415;28;105122;-72
2021/05/14 00:15:46;;;;;;;;;5.33;5.00;;;;;20.97;59.45;96885.53;4937778;28;102750;-72
2021/05/14 00:18:13;;;;;;;;;4.00;4.00;;;;;20.97;59.38;96891.84;4909214;28;102511;-73
2021/05/14 00:20:46;;;;;;;;;4.00;4.00;;;;;20.96;59.11;96883.91;4885902;28;103121;-73
2021/05/14 00:23:13;;;;;;;;;5.00;4.33;;;;;20.97;59.36;96886.34;4922063;28;102585;-73
2021/05/14 00:25:41;;;;;;;;;4.67;3.67;;;;;20.97;59.43;96885.53;4930779;28;102484;-73
2021/05/14 00:28:08;;;;;;;;;4.33;4.33;;;;;20.97;59.27;96894.59;4930194;28;102489;-73
2021/05/14 00:30:36;;;;;;;;;4.00;4.00;;;;;20.96;59.34;96886.66;4931776;28;104166;-73
2021/05/14 00:33:03;;;;;;;;;5.00;5.00;;;;;20.97;59.13;96885.53;4925785;28;102527;-73
2021/05/14 00:35:31;;;;;;;;;4.00;3.00;;;;;20.96;59.26;96883.91;4915898;28;102345;-72
2021/05/14 00:37:58;;;;;;;;;4.00;4.00;;;;;20.96;59.07;96886.66;4928249;28;102847;-73
2021/05/14 00:40:26;;;;;;;;;6.00;5.00;;;;;20.96;59.18;96884.72;4924368;28;103367;-72
2021/05/14 00:42:53;;;;;;;;;5.00;4.00;;;;;20.93;59.34;96882.59;4928544;28;102609;-72
2021/05/14 00:45:21;;;;;;;;;5.00;4.00;;;;;20.95;59.68;96891.31;4922900;28;102221;-72
2021/05/14 00:47:48;;;;;;;;;4.00;4.00;;;;;20.95;59.40;96883.06;4929278;28;102983;-72
2021/05/14 00:50:16;;;;;;;;;2.67;2.33;;;;;20.94;59.11;96887.75;4924839;28;104739;-73
2021/05/14 00:52:43;;;;;;;;;3.00;3.00;;;;;20.94;59.38;96901.50;4907871;28;102049;-73
2021/05/14 00:55:11;;;;;;;;;4.67;4.67;;;;;20.94;59.84;96895.19;4913312;28;102400;-73
2021/05/14 00:57:39;;;;;;;;;7.00;5.00;;;;;20.93;59.43;96899.06;4936083;28;103194;-73
2021/05/14 01:00:07;;;;;;;;;5.00;5.00;;;;;20.93;59.37;96888.09;4932829;28;103574;-73
2021/05/14 01:02:35;;;;;;;;;7.00;5.67;;;;;20.93;59.39;96890.84;4919013;28;102502;-72
2021/05/14 01:05:03;;;;;;;;;4.00;4.00;;;;;20.94;59.40;96892.44;4916739;28;104620;-73
2021/05/14 01:07:30;;;;;;;;;5.00;4.00;;;;;20.93;59.39;96896.34;4923375;28;102519;-73
2021/05/14 01:09:58;;;;;;;;;4.67;4.00;;;;;20.92;59.57;96891.94;4912979;28;103300;-73
2021/05/14 01:12:25;;;;;;;;;4.67;4.67;;;;;20.91;59.56;96882.06;4895128;28;102253;-73
2021/05/14 01:14:52;;;;;;;;;4.00;4.00;;;;;20.91;59.22;96882.88;4923241;28;104416;-73
2021/05/14 01:17:19;;;;;;;;;5.00;4.33;;;;;20.90;59.34;96883.19;4900634;28;103015;-73
2021/05/14 01:19:46;;;;;;;;;4.33;4.00;;;;;20.90;59.35;96889.50;4915058;28;109036;-73
2021/05/14 01:22:13;;;;;;;;;4.00;4.00;;;;;20.90;59.53;96886.75;4922132;28;102262;-73
2021/05/14 01:24:41;;;;;;;;;3.67;3.00;;;;;20.89;59.46;96889.84;4908078;28;102586;-72
2021/05/14 01:27:10;;;;;;;;;4.33;4.33;;;;;20.90;59.13;96888.69;4927655;28;102495;-73
2021/05/14 01:29:37;;;;;;;;;4.00;4.00;;;;;20.90;59.31;96894.19;4930594;28;103083;-73
2021/05/14 01:32:05;;;;;;;;;4.67;4.67;;;;;20.88;59.49;96890.94;4925676;28;102368;-73
2021/05/14 01:34:33;;;;;;;;;5.33;3.00;;;;;20.87;59.82;96886.56;4928077;28;102639;-72
2021/05/14 01:37:00;;;;;;;;;4.00;4.00;;;;;20.87;59.47;96881.88;4925361;28;102820;-72
2021/05/14 01:39:27;;;;;;;;;4.00;3.00;;;;;20.89;59.29;96881.59;4924057;28;105201;-73
2021/05/14 01:41:55;;;;;;;;;5.00;5.00;;;;;20.87;59.87;96881.88;4933553;28;102214;-73
2021/05/14 01:44:23;;;;;;;;;5.00;4.67;;;;;20.87;59.57;96886.56;4915656;28;102703;-73
2021/05/14 01:46:52;;;;;;;;;3.00;2.67;;;;;20.87;59.64;96892.06;4921952;28;102568;-73
2021/05/14 01:49:19;;;;;;;;;3.33;3.00;;;;;20.86;59.74;96885.75;4933211;28;106082;-73
2021/05/14 01:51:47;;;;;;;;;4.00;3.00;;;;;20.87;59.31;96886.56;4940961;28;102717;-73
2021/05/14 01:54:15;;;;;;;;;4.00;4.00;;;;;20.87;59.39;96881.88;4933265;28;102916;-73
2021/05/14 01:56:47;;;;;;;;;4.67;4.00;;;;;20.86;59.63;96883.00;4932301;28;102976;-73
2021/05/14 01:59:14;;;;;;;;;3.67;3.00;;;;;20.86;59.58;96891.25;4924913;28;104581;-73
2021/05/14 02:01:42;;;;;;;;;3.33;3.33;;;;;20.85;59.43;96891.53;4936516;28;102588;-73
2021/05/14 02:04:12;;;;;;;;;3.67;3.67;;;;;20.85;59.71;96891.53;4928452;28;102242;-73
2021/05/14 02:06:40;;;;;;;;;3.00;3.00;;;;;20.86;59.59;96890.44;4934034;28;102729;-73
2021/05/14 02:09:07;;;;;;;;;4.33;3.00;;;;;20.86;59.54;96899.47;4918212;28;103127;-73
2021/05/14 02:11:35;;;;;;;;;4.00;3.33;;;;;20.86;59.49;96898.66;4920219;28;102552;-73
2021/05/14 02:14:03;;;;;;;;;4.00;4.00;;;;;20.84;59.56;96899.00;4925769;28;102132;-73
2021/05/14 02:16:31;;;;;;;;;3.00;3.00;;;;;20.84;59.66;96899.00;4929943;28;102298;-72
2021/05/14 02:18:58;;;;;;;;;5.00;3.67;;;;;20.84;59.48;96900.94;4926822;28;104482;-73
2021/05/14 02:21:26;;;;;;;;;3.00;3.00;;;;;20.83;59.96;96900.13;4925386;28;102806;-73
2021/05/14 02:23:53;;;;;;;;;4.00;4.00;;;;;20.82;59.94;96909.47;4924282;28;103389;-73
2021/05/14 02:26:20;;;;;;;;;3.33;3.33;;;;;20.83;59.85;96902.03;4918071;28;102503;-73
2021/05/14 02:28:47;;;;;;;;;3.00;3.00;;;;;20.84;59.37;96909.16;4927398;28;109376;-73
2021/05/14 02:31:14;;;;;;;;;2.67;2.67;;;;;20.83;59.42;96907.53;4934114;28;102740;-73
2021/05/14 02:33:41;;;;;;;;;4.67;3.33;;;;;20.84;59.96;96911.91;4927548;28;102089;-73
2021/05/14 02:36:09;;;;;;;;;4.67;4.00;;;;;20.82;59.94;96909.47;4922456;28;103572;-73
2021/05/14 02:38:36;;;;;;;;;3.33;3.00;;;;;20.82;59.75;96914.16;4922398;28;105312;-73
2021/05/14 02:41:08;;;;;;;;;4.33;3.67;;;;;20.82;59.92;96908.66;4928691;28;102297;-73
2021/05/14 02:43:35;;;;;;;;;4.00;4.00;;;;;20.81;59.67;96910.59;4927463;28;103359;-73
2021/05/14 02:46:02;;;;;;;;;3.33;3.33;;;;;20.80;60.05;96917.19;4927084;28;102559;-73
2021/05/14 02:48:29;;;;;;;;;3.00;3.00;;;;;20.81;59.45;96915.25;4938696;28;104117;-73
2021/05/14 02:50:56;;;;;;;;;5.33;3.33;;;;;20.81;59.49;96912.50;4930503;28;102361;-73
2021/05/14 02:53:23;;;;;;;;;4.00;4.00;;;;;20.82;59.84;96916.88;4926265;28;102119;-73
2021/05/14 02:55:51;;;;;;;;;3.00;2.33;;;;;20.81;59.35;96912.50;4943153;28;103494;-73
2021/05/14 02:58:18;;;;;;;;;5.00;3.67;;;;;20.80;59.63;96922.69;4923240;28;111083;-73
2021/05/14 03:00:45;;;;;;;;;3.67;3.67;;;;;20.81;59.69;96926.25;4931734;28;102451;-73
2021/05/14 03:03:12;;;;;;;;;3.00;3.00;;;;;20.81;59.41;96924.31;4920892;28;104933;-73
2021/05/14 03:05:39;;;;;;;;;3.00;3.00;;;;;20.80;59.50;96927.41;4931332;28;103165;-73
2021/05/14 03:08:07;;;;;;;;;3.00;3.00;;;;;20.80;59.65;96927.41;4932122;28;104361;-73
2021/05/14 03:10:34;;;;;;;;;4.67;3.00;;;;;20.79;59.57;96925.75;4929336;28;104851;-73
2021/05/14 03:13:01;;;;;;;;;6.33;4.33;;;;;20.79;60.06;96934.00;4941834;28;102144;-72
2021/05/14 03:15:28;;;;;;;;;3.33;3.00;;;;;20.79;59.84;96923.84;4931760;28;104625;-72
2021/05/14 03:17:55;;;;;;;;;2.00;2.00;;;;;20.79;59.91;96926.56;4938333;28;103808;-72
2021/05/14 03:20:23;;;;;;;;;3.67;3.00;;;;;20.79;59.50;96932.06;4937216;28;110049;-71
2021/05/14 03:22:50;;;;;;;;;4.33;4.00;;;;;20.77;59.93;96934.28;4921320;28;102172;-72
2021/05/14 03:25:17;;;;;;;;;4.00;3.33;;;;;20.78;59.52;96935.13;4923278;28;102321;-73
2021/05/14 03:27:44;;;;;;;;;3.00;3.00;;;;;20.78;59.72;96933.19;4922457;28;105184;-73
2021/05/14 03:30:12;;;;;;;;;3.00;3.00;;;;;20.79;59.89;96936.75;4913780;28;103401;-73
2021/05/14 03:32:39;;;;;;;;;3.00;3.00;;;;;20.77;59.75;96933.47;4920646;28;104301;-72
2021/05/14 03:35:07;;;;;;;;;2.67;2.67;;;;;20.77;59.50;96944.47;4924302;28;103115;-72
2021/05/14 03:37:34;;;;;;;;;2.33;2.00;;;;;20.77;59.70;96938.97;4936313;28;104082;-72
2021/05/14 03:40:04;;;;;;;;;4.00;4.00;;;;;20.76;59.47;96937.34;4922403;28;102451;-73
2021/05/14 03:42:31;;;;;;;;;3.67;3.00;;;;;20.76;59.64;96953.81;4942568;28;102612;-73
2021/05/14 03:44:58;;;;;;;;;4.67;4.00;;;;;20.75;59.66;96942.06;4930047;28;102698;-73
2021/05/14 03:47:25;;;;;;;;;2.00;2.00;;;;;20.76;59.92;96948.31;4925683;28;104119;-73
2021/05/14 03:49:52;;;;;;;;;3.33;3.33;;;;;20.75;59.76;96947.53;4922925;28;102547;-73
2021/05/14 03:52:19;;;;;;;;;2.00;2.00;;;;;20.74;59.56;96967.88;4930145;28;102606;-72
2021/05/14 03:54:46;;;;;;;;;4.00;3.00;;;;;20.75;59.97;96965.97;4919759;28;102591;-73
2021/05/14 03:57:14;;;;;;;;;4.00;4.00;;;;;20.75;59.51;96963.22;4924405;28;104384;-73
2021/05/14 03:59:41;;;;;;;;;3.00;2.00;;;;;20.75;60.12;96968.69;4931033;28;102470;-72
2021/05/14 04:02:10;;;;;;;;;3.00;3.00;;;;;20.75;59.97;96969.53;4926344;28;102165;-73
2021/05/14 04:04:37;;;;;;;;;2.00;2.00;;;;;20.75;59.93;96971.44;4937519;28;102322;-73
2021/05/14 04:07:05;;;;;;;;;4.00;3.67;;;;;20.75;59.53;96974.19;4923434;28;103788;-72
2021/05/14 04:09:34;;;;;;;;;3.67;3.00;;;;;20.74;59.76;96975.31;4928085;28;103193;-73
2021/05/14 04:15:05;;;;;;;;;2.67;2.33;;;;;20.74;59.49;96989.03;4869999;28;102776;-73
2021/05/14 04:17:33;;;;;;;;;3.00;3.00;;;;;20.72;59.68;96980.28;4916535;28;104058;-72
2021/05/14 04:20:00;;;;;;;;;4.00;4.00;;;;;20.71;59.72;96985.00;4932483;28;103083;-73
2021/05/14 04:22:27;;;;;;;;;2.00;2.00;;;;;20.72;59.62;96985.78;4940341;28;102303;-72
2021/05/14 04:24:54;;;;;;;;;3.00;2.00;;;;;20.72;60.10;96988.53;4942338;28;102712;-73
2021/05/14 04:27:22;;;;;;;;;3.33;3.33;;;;;20.66;59.72;96973.28;4935642;28;108658;-73
2021/05/14 04:29:49;;;;;;;;;2.67;2.33;;;;;20.69;59.54;96981.72;4932052;28;102177;-73
2021/05/14 04:32:16;;;;;;;;;3.00;3.00;;;;;20.70;59.34;96988.84;4931326;28;102588;-73
2021/05/14 04:34:43;;;;;;;;;3.00;2.67;;;;;20.69;59.90;96981.72;4926407;28;102513;-73
2021/05/14 04:37:12;;;;;;;;;3.00;2.00;;;;;20.70;60.00;96985.28;4929958;28;104212;-73
2021/05/14 04:39:41;;;;;;;;;3.00;3.00;;;;;20.69;59.90;96991.88;4929097;28;102211;-73
2021/05/14 04:42:09;;;;;;;;;5.00;5.00;;;;;20.68;59.30;96984.75;4923815;28;102726;-73
2021/05/14 04:44:36;;;;;;;;;3.00;3.00;;;;;20.70;59.38;96991.59;4937400;28;102393;-73
2021/05/14 04:47:03;;;;;;;;;3.00;3.00;;;;;20.70;59.76;96988.03;4929040;28;104025;-73
2021/05/14 04:49:31;;;;;;;;;3.33;3.00;;;;;20.69;59.73;96980.91;4935052;28;102312;-75
2021/05/14 04:51:58;;;;;;;;;4.00;3.00;;;;;20.68;59.52;96982.00;4932240;28;102561;-75
2021/05/14 04:54:27;;;;;;;;;3.67;3.33;;;;;20.69;59.57;96987.22;4936371;28;103764;-74
2021/05/14 04:56:54;;;;;;;;;2.33;1.67;;;;;20.68;59.76;96984.75;4929004;28;104036;-74
2021/05/14 04:59:21;;;;;;;;;4.00;4.00;;;;;20.67;59.78;96988.66;4930222;28;102322;-74
2021/05/14 05:01:48;;;;;;;;;3.00;3.00;;;;;20.67;59.74;96986.69;4926491;28;102573;-73
2021/05/14 05:04:15;;;;;;;;;3.00;3.00;;;;;20.70;59.36;96990.78;4943678;28;102541;-73
2021/05/14 05:06:43;;;;;;;;;3.00;3.00;;;;;20.67;59.39;96994.94;4945844;28;104009;-81
2021/05/14 05:09:11;;;;;;;;;2.67;2.67;;;;;20.68;59.48;96998.50;4932469;28;106355;-74
2021/05/14 05:11:38;;;;;;;;;2.33;2.33;;;;;20.67;59.76;96994.94;4931003;28;102330;-73
2021/05/14 05:14:05;;;;;;;;;2.00;2.00;;;;;20.67;59.51;96994.94;4934247;28;102698;-73
2021/05/14 05:16:32;;;;;;;;;3.00;3.00;;;;;20.67;59.50;96999.63;4933402;28;104085;-73
2021/05/14 05:18:59;;;;;;;;;2.00;2.00;;;;;20.67;59.76;97005.13;4938163;28;102692;-73
2021/05/14 05:21:27;;;;;;;;;4.00;4.00;;;;;20.67;59.57;97005.13;4931191;28;102279;-72
2021/05/14 05:23:54;;;;;;;;;2.00;2.00;;;;;20.67;59.47;97005.13;4931650;28;102645;-73
2021/05/14 05:26:21;;;;;;;;;2.00;2.00;;;;;20.66;59.95;96998.00;4934435;28;109128;-73
2021/05/14 05:28:48;;;;;;;;;3.00;2.33;;;;;20.67;59.79;97005.13;4940214;28;102419;-72
2021/05/14 05:31:15;;;;;;;;;2.00;2.00;;;;;20.66;59.85;97000.75;4937738;28;107095;-72
2021/05/14 05:33:42;;;;;;;;;3.00;3.00;;;;;20.69;59.73;97019.34;4939106;28;102506;-72
2021/05/14 05:36:09;;;;;;;;;2.67;2.67;;;;;20.68;59.54;97012.22;4933135;28;104030;-72
2021/05/14 05:38:36;;;;;;;;;3.00;3.00;;;;;20.68;59.62;97017.72;4921448;28;102624;-72
2021/05/14 05:41:04;;;;;;;;;3.00;3.00;;;;;20.67;59.84;97019.66;4937005;28;102277;-72
2021/05/14 05:43:31;;;;;;;;;5.00;4.00;;;;;20.67;59.68;97014.16;4936648;28;102234;-72
2021/05/14 05:45:58;;;;;;;;;5.00;3.67;;;;;20.67;59.34;97022.41;4924392;28;104279;-72
2021/05/14 05:48:25;;;;;;;;;2.00;2.00;;;;;20.66;59.46;97020.78;4934397;28;102668;-72
2021/05/14 05:50:52;;;;;;;;;4.33;3.00;;;;;20.68;59.50;97023.22;4929720;28;102691;-73
2021/05/14 05:53:19;;;;;;;;;3.67;3.00;;;;;20.70;59.70;97029.22;4934024;28;104129;-74
2021/05/14 05:55:47;;;;;;;;;2.00;2.00;;;;;20.70;59.67;97030.03;4936885;28;104081;-73
2021/05/14 05:58:15;;;;;;;;;3.00;2.00;;;;;20.68;59.89;97028.72;4936758;28;104136;-73
2021/05/14 06:00:42;;;;;;;;;2.00;2.00;;;;;20.70;59.41;97042.97;4936808;28;102641;-73
2021/05/14 06:03:10;;;;;;;;;2.67;2.00;;;;;20.70;59.78;97035.53;4923080;28;103433;-73
2021/05/14 06:05:38;;;;;;;;;4.00;3.00;;;;;20.71;59.71;97047.34;4940809;28;105490;-73
2021/05/14 06:08:06;;;;;;;;;3.00;2.33;;;;;20.71;59.80;97042.66;4924566;28;102324;-73
2021/05/14 06:10:33;;;;;;;;;3.00;2.67;;;;;20.72;59.65;97043.47;4936541;28;102297;-73
2021/05/14 06:13:00;;;;;;;;;2.67;2.00;;;;;20.72;60.10;97051.69;4937830;28;102543;-73
2021/05/14 06:15:27;;;;;;;;;2.67;2.67;;;;;20.73;60.61;97051.41;4928761;28;103668;-73
2021/05/14 06:17:54;;;;;;;;;4.00;2.00;;;;;20.71;59.60;97048.16;4933974;28;102635;-73
2021/05/14 06:20:24;;;;;;;;;3.33;3.00;;;;;20.69;60.30;97052.31;4928770;28;103115;-73
2021/05/14 06:22:52;;;;;;;;;4.33;3.00;;;;;20.71;60.36;97055.59;4930763;28;102268;-73
2021/05/14 06:25:19;;;;;;;;;2.00;2.00;;;;;20.72;60.42;97058.00;4937615;28;104173;-73
2021/05/14 06:27:46;;;;;;;;;3.33;3.33;;;;;20.71;60.88;97066.56;4932241;28;102598;-73
2021/05/14 06:30:14;;;;;;;;;2.33;2.33;;;;;20.73;60.84;97064.31;4925319;28;103805;-73
2021/05/14 06:32:42;;;;;;;;;3.00;3.00;;;;;20.72;60.83;97068.19;4929986;28;102457;-73
2021/05/14 06:35:10;;;;;;;;;2.33;2.33;;;;;20.73;60.26;97070.63;4923602;28;104110;-75
2021/05/14 06:37:37;;;;;;;;;3.67;3.67;;;;;20.75;60.05;97067.59;4930389;28;102355;-74
2021/05/14 06:40:08;;;;;;;;;3.67;3.67;;;;;20.76;59.55;97069.19;4925799;28;102894;-74
2021/05/14 06:42:35;;;;;;;;;5.67;5.67;;;;;20.77;60.28;97079.06;4938897;28;105563;-74
2021/05/14 06:45:07;;;;;;;;;5.00;4.00;;;;;20.79;60.06;97074.09;4925888;28;104762;-73
2021/05/14 06:47:34;;;;;;;;;6.00;5.67;;;;;20.79;60.17;97079.59;4938148;28;102606;-74
2021/05/14 06:50:05;;;;;;;;;5.67;5.67;;;;;20.77;60.60;97079.06;4937683;28;102116;-74
2021/05/14 06:52:35;;;;;;;;;8.33;6.00;;;;;20.78;60.11;97088.94;4946154;28;102209;-74
2021/05/14 06:55:04;;;;;;;;;11.33;8.33;;;;;20.80;60.25;97089.47;4920791;28;104003;-74
2021/05/14 06:57:31;;;;;;;;;8.00;5.00;;;;;20.80;60.29;97084.00;4931140;28;103617;-74
2021/05/14 06:59:58;;;;;;;;;8.00;8.00;;;;;20.80;60.27;97095.75;4929145;28;102432;-74
2021/05/14 07:02:26;;;;;;;;;11.67;9.00;;;;;20.81;60.82;97093.84;4935310;28;102420;-74
2021/05/14 07:04:53;;;;;;;;;9.00;8.33;;;;;20.81;60.62;97102.06;4941521;28;109135;-74
2021/05/14 07:07:20;;;;;;;;;12.67;11.00;;;;;20.80;60.70;97097.72;4941170;28;102720;-73
2021/05/14 07:09:47;;;;;;;;;9.33;8.00;;;;;20.80;61.19;97106.75;4928553;28;102031;-74
2021/05/14 07:12:15;;;;;;;;;9.33;8.33;;;;;20.81;61.40;97099.31;4929796;28;102348;-73
2021/05/14 07:14:42;;;;;;;;;9.00;8.33;;;;;20.79;60.78;97099.66;4928308;28;105579;-73
2021/05/14 07:17:13;;;;;;;;;12.33;9.00;;;;;20.80;60.93;97100.47;4925682;28;103321;-74
2021/05/14 07:19:41;;;;;;;;;10.33;9.00;;;;;20.79;61.07;97107.91;4914848;28;102406;-73
2021/05/14 07:22:08;;;;;;;;;7.33;7.33;;;;;20.80;60.68;97100.47;4929788;28;103429;-73
2021/05/14 07:24:35;;;;;;;;;11.33;10.67;;;;;20.80;61.11;97100.47;4932552;28;104234;-73
2021/05/14 07:27:04;;;;;;;;;9.00;8.00;;;;;20.80;60.78;97105.97;4920823;28;102723;-73
2021/05/14 07:29:31;;;;;;;;;9.00;8.67;;;;;20.79;61.00;97107.06;4930677;28;103848;-73
2021/05/14 07:31:58;;;;;;;;;10.00;9.00;;;;;20.79;60.95;97104.31;4926505;28;103112;-73
2021/05/14 07:34:29;;;;;;;;;8.33;7.67;;;;;20.80;60.94;97108.72;4926299;28;104366;-73
2021/05/14 07:37:03;;;;;;;;;7.67;7.67;;;;;20.79;60.84;97116.13;4929813;28;102091;-73
2021/05/14 07:39:30;;;;;;;;;8.33;7.67;;;;;20.79;60.86;97118.88;4916088;28;102739;-73
2021/05/14 07:41:57;;;;;;;;;7.00;7.00;;;;;20.79;60.78;97120.81;4935936;28;107104;-74
2021/05/14 07:44:24;;;;;;;;;11.00;9.00;;;;;20.77;61.28;97126.59;4938105;28;108814;-74
2021/05/14 07:46:52;;;;;;;;;9.33;9.33;;;;;20.78;61.35;97121.91;4926877;28;102511;-74
2021/05/14 07:49:19;;;;;;;;;8.67;7.33;;;;;20.77;61.06;97125.78;4926256;28;102160;-74
2021/05/14 07:51:46;;;;;;;;;10.33;10.00;;;;;20.78;61.30;97132.91;4927321;28;104203;-73
2021/05/14 07:54:14;;;;;;;;;6.67;6.67;;;;;20.78;61.42;97130.97;4924555;28;103793;-74
2021/05/14 07:56:41;;;;;;;;;11.00;9.33;;;;;20.79;60.97;97129.88;4931715;28;102256;-74
2021/05/14 07:59:15;;;;;;;;;8.33;7.33;;;;;20.79;61.20;97134.53;4936783;28;103893;-74
2021/05/14 08:01:43;;;;;;;;;10.00;7.33;;;;;20.80;61.24;97133.44;4922959;28;103119;-74
2021/05/14 08:04:10;;;;;;;;;10.00;9.67;;;;;20.80;60.87;97142.47;4927607;28;104527;-73
2021/05/14 08:06:37;;;;;;;;;8.33;6.67;;;;;20.80;61.20;97139.72;4941296;28;102487;-74
2021/05/14 08:09:07;;;;;;;;;7.00;7.00;;;;;20.80;61.05;97141.69;4933479;28;104838;-73
2021/05/14 08:11:35;;;;;;;;;9.33;8.00;;;;;20.80;60.93;97136.19;4931031;28;103305;-74
2021/05/14 08:14:02;;;;;;;;;7.67;7.00;;;;;20.80;61.38;97147.19;4930836;28;104186;-73
2021/05/14 08:16:29;;;;;;;;;9.33;9.00;;;;;20.78;61.29;97141.16;4937843;28;102194;-73
2021/05/14 08:18:57;;;;;;;;;9.00;8.00;;;;;20.77;61.61;97145.00;4933609;28;102463;-74
2021/05/14 08:21:24;;;;;;;;;9.67;8.00;;;;;20.76;61.41;97157.09;4932936;28;103850;-74
2021/05/14 08:23:51;;;;;;;;;9.00;9.00;;;;;20.76;61.15;97146.13;4926283;28;104250;-74
2021/05/14 08:26:18;;;;;;;;;7.00;6.67;;;;;20.74;61.42;97151.94;4934539;28;104379;-74
2021/05/14 08:28:45;;;;;;;;;11.67;9.67;;;;;20.74;61.31;97157.44;4932587;28;103522;-74
2021/05/14 08:31:13;;;;;;;;;12.67;9.00;;;;;20.73;61.93;97157.72;4935989;28;102291;-74
2021/05/14 08:33:40;;;;;;;;;10.00;9.67;;;;;20.72;61.40;97162.41;4934523;28;104053;-74
2021/05/14 08:36:08;;;;;;;;;10.33;9.33;;;;;20.71;61.93;97166.28;4942862;28;105379;-74
2021/05/14 08:38:35;;;;;;;;;8.33;8.33;;;;;20.70;61.84;97169.31;4940897;28;103606;-74
2021/05/14 08:41:06;;;;;;;;;9.00;7.00;;;;;20.69;61.59;97165.75;4931077;28;102529;-73
2021/05/14 08:43:34;;;;;;;;;9.00;7.67;;;;;20.72;61.66;97167.06;4934501;28;104140;-73
2021/05/14 08:46:02;;;;;;;;;6.67;6.00;;;;;20.72;61.31;97173.38;4933543;28;103452;-73
2021/05/14 08:48:35;;;;;;;;;6.67;6.67;;;;;20.72;61.46;97172.56;4929760;28;102441;-72
2021/05/14 08:51:07;;;;;;;;;6.00;6.00;;;;;20.73;61.44;97175.03;4934912;28;102357;-73
2021/05/14 08:53:37;;;;;;;;;8.33;7.00;;;;;20.71;61.38;97177.28;4929387;28;104251;-74
2021/05/14 08:56:04;;;;;;;;;9.67;8.00;;;;;20.71;61.60;97179.19;4931604;28;102756;-73
2021/05/14 08:58:31;;;;;;;;;8.00;8.00;;;;;20.72;61.64;97189.03;4925799;28;102225;-73
2021/05/14 09:00:59;;;;;;;;;7.67;7.00;;;;;20.70;61.57;97191.28;4952725;28;102263;-73
2021/05/14 09:03:26;;;;;;;;;8.00;8.00;;;;;20.71;61.21;97192.94;4939433;28;103965;-73
2021/05/14 09:05:55;;;;;;;;;9.00;7.00;;;;;20.71;61.61;97193.75;4938466;28;102103;-73
2021/05/14 09:08:29;;;;;;;;;8.33;7.00;;;;;20.70;61.54;97196.78;4946159;28;101993;-73
2021/05/14 09:10:56;;;;;;;;;6.00;6.00;;;;;20.69;61.68;97203.41;4931626;28;102217;-73
2021/05/14 09:13:36;;;;;;;;;6.00;6.00;;;;;20.66;61.37;97193.84;4938246;28;108925;-74
2021/05/14 09:16:04;;;;;;;;;6.00;6.00;;;;;20.65;61.59;97207.84;4864167;28;102360;-74
2021/05/14 09:18:32;;;;;;;;;8.67;8.67;;;;;20.67;61.62;97208.38;4939091;28;102392;-74
2021/05/14 09:21:00;;;;;;;;;9.00;8.00;;;;;20.67;61.41;97211.94;4927433;28;102304;-73
2021/05/14 09:23:35;;;;;;;;;7.67;7.00;;;;;20.72;61.50;97211.03;4937117;28;104249;-74
2021/05/14 09:26:12;;;;;;;;;8.33;6.67;;;;;20.74;61.52;97215.13;4917270;28;103842;-73
2021/05/14 09:28:42;;;;;;;;;10.00;8.00;;;;;20.75;61.13;97213.19;4931463;28;103621;-73
2021/05/14 09:31:26;;;;;;;;;7.33;6.67;;;;;20.77;61.01;97217.25;4937190;28;103404;-74
2021/05/14 09:33:53;;;;;;;;;7.33;6.00;;;;;20.79;60.93;97216.97;4948224;28;104276;-74
2021/05/14 09:36:24;;;;;;;;;8.33;8.00;;;;;20.80;60.96;97221.34;4944230;28;102436;-73
2021/05/14 09:38:54;;;;;;;;;5.67;5.67;;;;;20.81;61.15;97222.97;4939522;28;102163;-73
2021/05/14 09:41:38;;;;;;;;;5.00;5.00;;;;;20.81;61.16;97221.03;4934947;28;102702;-74
2021/05/14 09:44:14;;;;;;;;;7.00;7.00;;;;;20.82;61.09;97216.34;4877155;28;108947;-73
2021/05/14 09:46:45;;;;;;;;;7.00;6.33;;;;;20.82;61.03;97227.34;4929924;28;102649;-74
2021/05/14 09:49:16;;;;;;;;;10.00;7.67;;;;;20.82;61.11;97230.91;4932831;28;102436;-73
2021/05/14 09:52:05;;;;;;;;;8.00;7.00;;;;;20.83;60.80;97228.97;4940183;28;103719;-74
2021/05/14 09:54:39;;;;;;;;;7.67;6.00;;;;;20.83;61.29;97228.97;4876034;28;108775;-74
2021/05/14 09:59:55;;;;;;;;;7.00;5.00;;;;;20.84;60.79;97225.13;4938858;28;102193;-74
2021/05/14 10:02:34;;;;;;;;;4.33;4.33;;;;;20.84;61.13;97230.63;4934692;28;103728;-74
2021/05/14 10:05:06;;;;;;;;;7.33;7.33;;;;;20.83;60.84;97232.56;4937192;28;108888;-73
2021/05/14 10:07:36;;;;;;;;;7.33;6.00;;;;;20.83;60.75;97235.31;4931490;28;102169;-73
2021/05/14 10:10:07;;;;;;;;;6.33;5.67;;;;;20.83;61.18;97235.31;4935378;28;102919;-73
2021/05/14 10:12:35;;;;;;;;;7.33;6.00;;;;;20.83;60.72;97238.06;4933717;28;103213;-74
2021/05/14 10:15:09;;;;;;;;;6.00;6.00;;;;;20.83;61.11;97229.81;4929290;28;103972;-73
2021/05/14 10:17:38;;;;;;;;;7.33;6.67;;;;;20.84;60.92;97236.13;4936282;28;102316;-74
2021/05/14 10:20:15;;;;;;;;;9.00;9.00;;;;;20.83;61.07;97237.22;4919465;28;103182;-73
2021/05/14 10:22:43;;;;;;;;;9.33;7.67;;;;;20.84;60.80;97247.94;4923368;28;103848;-74
2021/05/14 10:25:13;;;;;;;;;6.33;6.33;;;;;20.84;60.76;97242.44;4918193;28;104110;-73
2021/05/14 10:27:44;;;;;;;;;7.33;7.33;;;;;20.84;61.01;97241.63;4933559;28;102601;-73
2021/05/14 10:30:11;;;;;;;;;8.33;7.00;;;;;20.84;61.14;97245.19;4938295;28;102080;-73
2021/05/14 10:32:44;;;;;;;;;8.00;7.00;;;;;20.85;60.99;97254.22;4945884;28;113267;-74
2021/05/14 10:35:15;;;;;;;;;5.33;5.00;;;;;20.85;61.06;97245.97;4937682;28;104020;-74
2021/05/14 10:37:52;;;;;;;;;7.67;6.00;;;;;20.85;60.88;97245.97;4932846;28;104585;-74
2021/05/14 10:40:32;;;;;;;;;7.33;7.33;;;;;20.83;61.09;97251.78;4943317;28;102185;-74
2021/05/14 10:43:03;;;;;;;;;7.33;5.33;;;;;20.85;60.76;97254.22;4937896;28;102631;-74
2021/05/14 10:45:40;;;;;;;;;7.67;6.00;;;;;20.86;60.68;97256.66;4933336;28;104082;-74
2021/05/14 10:48:17;;;;;;;;;6.33;6.33;;;;;20.86;61.22;97258.59;4942626;28;102429;-74
2021/05/14 10:50:57;;;;;;;;;5.33;5.00;;;;;20.87;60.59;97265.72;4924637;28;105589;-74
2021/05/14 10:53:35;;;;;;;;;5.00;5.00;;;;;20.86;60.77;97262.16;4946090;28;102703;-74
2021/05/14 10:56:08;;;;;;;;;5.67;5.67;;;;;20.87;61.08;97268.47;4920296;28;108908;-73
2021/05/14 10:58:48;;;;;;;;;7.67;6.00;;;;;20.86;60.82;97267.66;4932736;28;102448;-73
2021/05/14 11:01:54;;;;;;;;;8.00;7.00;;;;;20.86;61.28;97275.09;4934414;28;103997;-74
2021/05/14 11:04:25;;;;;;;;;7.00;7.00;;;;;20.86;61.24;97275.91;4848264;28;102678;-73
2021/05/14 11:06:53;;;;;;;;;5.67;5.33;;;;;20.86;61.16;97278.66;4890381;28;104189;-74
2021/05/14 11:09:24;;;;;;;;;7.67;7.67;;;;;20.86;60.66;97283.31;4911531;28;104565;-74
2021/05/14 11:12:06;;;;;;;;;6.00;6.00;;;;;20.86;61.34;97278.66;4929971;28;104940;-74
2021/05/14 11:14:46;;;;;;;;;5.00;5.00;;;;;20.86;60.79;97283.31;4922911;28;102195;-73
2021/05/14 11:17:16;;;;;;;;;8.00;7.67;;;;;20.86;60.76;97286.91;4934232;28;104214;-74
2021/05/14 11:19:47;;;;;;;;;6.67;5.00;;;;;20.86;61.37;97288.81;4923026;28;102386;-73
2021/05/14 11:22:15;;;;;;;;;5.33;5.33;;;;;20.86;60.87;97294.31;4926637;28;102594;-73
2021/05/14 11:24:47;;;;;;;;;7.67;7.00;;;;;20.85;61.37;97292.69;4921612;28;106023;-73
2021/05/14 11:27:28;;;;;;;;;9.00;7.00;;;;;20.86;60.90;97299.81;4929165;28;104273;-73
2021/05/14 11:29:59;;;;;;;;;8.33;7.33;;;;;20.86;60.68;97300.63;4927753;28;102214;-74
2021/05/14 11:32:28;;;;;;;;;7.00;6.67;;;;;20.86;60.75;97305.31;4922309;28;103482;-74
2021/05/14 11:35:14;;;;;;;;;8.00;8.00;;;;;20.85;60.83;97309.97;4936035;28;104103;-74
2021/05/14 11:37:53;;;;;;;;;7.00;6.00;;;;;20.86;60.53;97319.03;4872134;28;109077;-73